METAR Data
IDs: Format: Raw Decoded Include TAF

Data at: 1746 UTC 25 Mar 2019

KINK 251653Z AUTO 10007KT 10SM CLR 20/06 A3025 RMK AO2 SLP216 T02000061
KINK 251553Z AUTO 08007KT 10SM CLR 18/07 A3025 RMK AO2 SLP215 T01780072
KINK 251453Z AUTO 07009KT 10SM CLR 15/07 A3022 RMK AO2 SLP207 T01500072 51026
KINK 251353Z AUTO 01006KT 10SM CLR 10/05 A3019 RMK AO2 SLP200 T01000050
KINK 251253Z AUTO 36005KT 10SM CLR 07/03 A3017 RMK AO2 SLP189 T00670028 /
KINK 251153Z AUTO 35007KT 10SM CLR 09/03 A3014 RMK AO2 SLP175 T00890028 10150 20072 53017 $
KINK 251053Z AUTO 00000KT 10SM CLR 08/01 A3011 RMK AO2 SLP165 T00780011 $
KINK 250953Z AUTO 36006KT 10SM CLR 08/M01 A3009 RMK AO2 SLP160 T00831006 $
KINK 250853Z AUTO 36009KT 10SM CLR 11/M03 A3008 RMK AO2 SLP153 T01111033 50003
KINK 250753Z AUTO 36012KT 10SM CLR 14/M05 A3009 RMK AO2 SLP153 T01441050
KINK 250653Z AUTO VRB03KT 10SM CLR 12/M04 A3008 RMK AO2 SLP154 T01221039
KINK 250553Z AUTO 30008KT 10SM CLR 14/M05 A3007 RMK AO2 SLP150 T01391050 10272 20133 402890056 50008
KINK 250453Z AUTO 29008KT 10SM CLR 13/M03 A3008 RMK AO2 SLP156 T01331028
KINK 250353Z AUTO 29007KT 10SM CLR 15/M03 A3007 RMK AO2 SLP155 T01501033
KINK 250253Z AUTO 27009KT 10SM CLR 18/M05 A3005 RMK AO2 SLP148 T01781050 53019
KINK 250153Z AUTO 26008KT 10SM CLR 19/M06 A3002 RMK AO2 SLP143 T01941061
KINK 250053Z AUTO 26010KT 10SM CLR 25/M09 A3000 RMK AO2 SLP133 T02501089
KINK 242353Z AUTO 27013G21KT 10SM CLR 28/M10 A2999 RMK AO2 SLP126 T02781100 10289 20250 55003
KINK 242253Z AUTO 28012G21KT 10SM CLR 28/M09 A2998 RMK AO2 WSHFT 2144 SLP121 T02831089
KINK 242204Z AUTO 24016G21KT 10SM CLR 28/M08 A2999 RMK AO2 WSHFT 2144 T02831078
KINK 242153Z AUTO 29014G27KT 10SM CLR 28/M07 A2999 RMK AO2 PK WND 24027/2146 SLP125 T02831072
KINK 242053Z AUTO 26019G28KT 10SM CLR 29/M09 A3000 RMK AO2 PK WND 25028/2051 SLP127 T02891089 58024
KINK 241953Z AUTO 28006KT 10SM CLR 27/M06 A3002 RMK AO2 SLP136 T02671061
KINK 241853Z AUTO 28008KT 10SM CLR 27/M06 A3006 RMK AO2 SLP146 T02671056
KINK 241753Z AUTO 25011KT 10SM CLR 25/M03 A3008 RMK AO2 SLP150 T02501033 10250 20056 50001 $
KINK 241653Z AUTO 00000KT 10SM CLR 21/M01 A3009 RMK AO2 SLP160 T02111006 $
KINK 241553Z AUTO 17003KT 10SM 18/01 A3009 RMK AO2 SLP161 T01830006 $
KINK 241453Z AUTO 13006KT 10SM 14/08 A3007 RMK AO2 SLP159 T01390083 53017 $
KINK 241353Z AUTO 00000KT 10SM 08/04 A3006 RMK AO2 SLP156 T00830044 $
KINK 241253Z AUTO 00000KT 10SM 06/03 A3003 RMK AO2 SLP147 T00560028 $
KINK 241153Z AUTO 00000KT 10SM 07/03 A3002 RMK AO2 SLP139 T00670028 10144 20061 53001 $
KINK 241053Z AUTO 11004KT 10SM 06/02 A3001 RMK AO2 SLP136 T00610017 $
KINK 240953Z AUTO 00000KT 10SM 07/01 A3001 RMK AO2 SLP137 T00670006 /
KINK 240853Z AUTO 04003KT 10SM CLR 07/00 A3001 RMK AO2 SLP137 T00720000 53003 $
KINK 240753Z AUTO 19007KT 10SM CLR 10/M02 A3001 RMK AO2 SLP133 T01001017 $
KINK 240653Z AUTO 19008KT 10SM CLR 11/M02 A3000 RMK AO2 SLP131 T01111022 $
KINK 240553Z AUTO 27006KT 10SM CLR 14/M04 A3001 RMK AO2 SLP131 T01441044 10250 20133 402560072 51007 $